Kyokusho Maru — JL6605 — position and weather

sailwx.info

Track history (hours):
 
Tides and Currents Weather Stations Pressure Air Temp Water Temp Dewpoint Dewpoint Depression Visibility Wind Speed Wind Dir Waves Ship Positions

Kyokusho Maru

Last reported at 2014-Jul-29 02:33 UTC. Time now 2014-Jul-29 06:50 UTC.
Position N 34°07' E 132°22'.

Length 77 m; draft 5.5 m.

Type: Tanker. MMSI: 431501667.

Date/timePositionNaut miles runAvg speedWind from/ knotsBaromVisibWave heightAir tempDewpointWater temp
2014-Jul-29 02:33N 34°07' E 132°22'5 1.5
2014-Jul-28 23:07N 34°11' E 132°26'4 5.1
2014-Jul-28 22:25N 34°08' E 132°23'4 4.3
2014-Jul-28 21:32N 34°10' E 132°19'0 0.0
2014-Jul-28 20:32N 34°10' E 132°19'0 0.0
2014-Jul-28 19:32N 34°10' E 132°19'0 0.0
2014-Jul-28 18:29N 34°10' E 132°19'0 0.0
2014-Jul-28 17:32N 34°10' E 132°19'0 0.1
2014-Jul-28 16:32N 34°10' E 132°19'0 0.0
2014-Jul-28 13:29N 34°10' E 132°19'0 0.0
2014-Jul-28 12:32N 34°10' E 132°19'0 0.0
2014-Jul-28 11:17N 34°10' E 132°19'0 0.0
2014-Jul-28 10:26N 34°10' E 132°19'0 0.0
2014-Jul-28 09:29N 34°10' E 132°19'0 0.0
2014-Jul-28 07:32N 34°10' E 132°19'4 0.8
2014-Jul-28 03:06N 34°06' E 132°19'3 0.7
2014-Jul-27 22:33N 34°09' E 132°20'  
2014-Jul-25 08:30N 34°08' E 132°22'7 0.3
2014-Jul-24 09:30N 34°02' E 132°27'9 1.7
2014-Jul-24 04:11N 34°11' E 132°26'5 6.1
2014-Jul-24 03:18N 34°07' E 132°22'4 0.7
2014-Jul-23 21:04N 34°10' E 132°19'0 0.0
2014-Jul-23 20:31N 34°10' E 132°19'0 0.1
2014-Jul-23 19:31N 34°10' E 132°19'0 0.0
2014-Jul-23 18:31N 34°10' E 132°19'0 0.0
2014-Jul-23 17:31N 34°10' E 132°19'0 0.0
2014-Jul-23 16:31N 34°10' E 132°19'0 0.0
2014-Jul-23 15:31N 34°10' E 132°19'0 0.0
2014-Jul-23 14:31N 34°10' E 132°19'0 0.1
2014-Jul-23 13:07N 34°10' E 132°19'0 0.1
2014-Jul-23 12:31N 34°10' E 132°19'0 0.0
2014-Jul-23 08:31N 34°10' E 132°19'0 0.0
2014-Jul-23 07:28N 34°10' E 132°19'0 0.0
2014-Jul-23 06:31N 34°10' E 132°19'0 0.0
2014-Jul-23 05:31N 34°10' E 132°19'0 0.0
2014-Jul-23 04:31N 34°10' E 132°19'0 0.1
2014-Jul-23 03:25N 34°10' E 132°19'4 0.7
2014-Jul-22 22:23N 34°09' E 132°23'3 3.9
2014-Jul-22 21:32N 34°10' E 132°19'0 0.0
2014-Jul-22 20:20N 34°10' E 132°19'0 0.0
2014-Jul-22 19:23N 34°10' E 132°19'0 0.0
2014-Jul-22 18:29N 34°10' E 132°19'0 0.0
2014-Jul-22 17:29N 34°10' E 132°19'0 0.1
2014-Jul-22 16:32N 34°10' E 132°20'0 0.0
2014-Jul-22 14:20N 34°10' E 132°20'0 0.0
2014-Jul-22 13:32N 34°10' E 132°20'0 0.0
2014-Jul-22 12:17N 34°10' E 132°20'0 0.1
2014-Jul-22 11:32N 34°10' E 132°20'  
Track history (hours):
 
Tides and Currents Weather Stations Pressure Air Temp Water Temp Dewpoint Dewpoint Depression Visibility Wind Speed Wind Dir Waves Ship Positions

Kyokusho Maru

Last reported at 2014-Jul-29 02:33 UTC. Time now 2014-Jul-29 06:50 UTC.
Position N 34°07' E 132°22'.

Length 77 m; draft 5.5 m.

Type: Tanker. MMSI: 431501667.

Date/timePositionNaut miles runAvg speedWind from/ knotsBaromVisibWave heightAir tempDewpointWater temp
2014-Jul-29 02:33N 34°07' E 132°22'5 1.5
2014-Jul-28 23:07N 34°11' E 132°26'4 5.1
2014-Jul-28 22:25N 34°08' E 132°23'4 4.3
2014-Jul-28 21:32N 34°10' E 132°19'0 0.0
2014-Jul-28 20:32N 34°10' E 132°19'0 0.0
2014-Jul-28 19:32N 34°10' E 132°19'0 0.0
2014-Jul-28 18:29N 34°10' E 132°19'0 0.0
2014-Jul-28 17:32N 34°10' E 132°19'0 0.1
2014-Jul-28 16:32N 34°10' E 132°19'0 0.0
2014-Jul-28 13:29N 34°10' E 132°19'0 0.0
2014-Jul-28 12:32N 34°10' E 132°19'0 0.0
2014-Jul-28 11:17N 34°10' E 132°19'0 0.0
2014-Jul-28 10:26N 34°10' E 132°19'0 0.0
2014-Jul-28 09:29N 34°10' E 132°19'0 0.0
2014-Jul-28 07:32N 34°10' E 132°19'4 0.8
2014-Jul-28 03:06N 34°06' E 132°19'3 0.7
2014-Jul-27 22:33N 34°09' E 132°20'  
2014-Jul-25 08:30N 34°08' E 132°22'7 0.3
2014-Jul-24 09:30N 34°02' E 132°27'9 1.7
2014-Jul-24 04:11N 34°11' E 132°26'5 6.1
2014-Jul-24 03:18N 34°07' E 132°22'4 0.7
2014-Jul-23 21:04N 34°10' E 132°19'0 0.0
2014-Jul-23 20:31N 34°10' E 132°19'0 0.1
2014-Jul-23 19:31N 34°10' E 132°19'0 0.0
2014-Jul-23 18:31N 34°10' E 132°19'0 0.0
2014-Jul-23 17:31N 34°10' E 132°19'0 0.0
2014-Jul-23 16:31N 34°10' E 132°19'0 0.0
2014-Jul-23 15:31N 34°10' E 132°19'0 0.0
2014-Jul-23 14:31N 34°10' E 132°19'0 0.1
2014-Jul-23 13:07N 34°10' E 132°19'0 0.1
2014-Jul-23 12:31N 34°10' E 132°19'0 0.0
2014-Jul-23 08:31N 34°10' E 132°19'0 0.0
2014-Jul-23 07:28N 34°10' E 132°19'0 0.0
2014-Jul-23 06:31N 34°10' E 132°19'0 0.0
2014-Jul-23 05:31N 34°10' E 132°19'0 0.0
2014-Jul-23 04:31N 34°10' E 132°19'0 0.1
2014-Jul-23 03:25N 34°10' E 132°19'4 0.7
2014-Jul-22 22:23N 34°09' E 132°23'3 3.9
2014-Jul-22 21:32N 34°10' E 132°19'0 0.0
2014-Jul-22 20:20N 34°10' E 132°19'0 0.0
2014-Jul-22 19:23N 34°10' E 132°19'0 0.0
2014-Jul-22 18:29N 34°10' E 132°19'0 0.0
2014-Jul-22 17:29N 34°10' E 132°19'0 0.1
2014-Jul-22 16:32N 34°10' E 132°20'0 0.0
2014-Jul-22 14:20N 34°10' E 132°20'0 0.0
2014-Jul-22 13:32N 34°10' E 132°20'0 0.0
2014-Jul-22 12:17N 34°10' E 132°20'0 0.1
2014-Jul-22 11:32N 34°10' E 132°20'  

Dump ship's entire track history